Prince Albert Glass Field
CYPA : now visible

Airfield :











YOU CAN JOIN US ON...

 
LOGIN :

Register | Disclaimer

   EN    FR    IT 

 









Legend :    VFR   Marginal VFR   IFR   Intensive IFR   Very Intensive IFR
Visi :
Ceiling :
>= 8 km
>= 3000ft
5 to 8 km
1000 to 3000 ft
1500m to 5 km
500 to 1000 ft
800 to 1500m
200 to 500 ft
< 800m
< 200 ft
Symbols :   Thunderstorms  Fog  Heavy snow  Heavy precipitations  Wind > 20 kt






- Airport Elevation : 1405 ft
- IATA code : YPA


CYPA - Prince Albert Glass Field

CURRENT METAR :
  • 171409Z 18009KT 2SM BR OVC002 M03/M03 A2975 RMK ST8 SLP101

EXPIRED METARs :
  • 171400Z 17005KT 1 1/2SM -FZDZ BR OVC003 M02/M03 A2974 RMK SF8 SLP098
  • 171334Z 17008KT 1SM R08/P6000FT/U -FZDZ BR OVC002 M02/M03 A2975 RMK ST8 PRESFR SLP101
  • 171309Z 17010KT 3/4SM R08/P6000FT/D -FZDZ BR OVC002 M02/M03 A2978 RMK ST8 SLP109
  • 171300Z 19007KT 5/8SM R08/P6000FT/U -FZDZ BR OVC002 M02/M03 A2978 RMK ST8 SLP111
  • 171200Z 19009KT 3/4SM R08/5500VP6000FT/U BR OVC002 M02/M02 A2982 RMK ST8 SLP124

TAF AMD TAF CYPA
Valid from the 17 at 14:00 until the 18 at 01:00 UTC


171426Z 1714/1801 18008KT 1/2SM FZFG OVC002
TEMPO 1714/1715 3SM -FZDZ BR OVC006
FM171500 17006KT P6SM SCT004 BKN120
TEMPO 1715/1718 2SM BR BKN004 BKN120
FM171800 20012KT P6SM BKN100
FM172200 21008KT P6SM BKN050
TEMPO 1722/1801 P6SM -SHRA RMK NXT FCST BY 171900Z



MET'MAP, your aeronautical weather chart ! - Copyright ORBIFLY December 2007 - Disclaimer

ORBIFLY MET'MAP TEAM :

Programming & Development : Alexandra Zaïnal
Concept & Development : Baudouin d'Aumeries
Co-Development & Prog : Marc-Olivier Méhu
Technical & hardware support : Manuel Goepfert

Contact : metmap@orbifly.com




SOURCES & CREDITS :

   NOAA       Earth
Advisory